sensor_id;sensor_type;location;lat;lon;timestamp;P1;durP1;ratioP1;P2;durP2;ratioP2
19235;SDS011;9752;54.270;12.470;2023-03-17T00:00:45;18.20;;;17.20;;
19235;SDS011;9752;54.270;12.470;2023-03-17T00:05:48;18.37;;;17.10;;
19235;SDS011;9752;54.270;12.470;2023-03-17T00:10:52;19.20;;;17.77;;
19235;SDS011;9752;54.270;12.470;2023-03-17T00:15:55;18.30;;;16.87;;
19235;SDS011;9752;54.270;12.470;2023-03-17T00:21:00;18.37;;;17.17;;
19235;SDS011;9752;54.270;12.470;2023-03-17T00:26:03;18.73;;;17.43;;
19235;SDS011;9752;54.270;12.470;2023-03-17T00:31:09;19.17;;;17.67;;
19235;SDS011;9752;54.270;12.470;2023-03-17T00:36:15;18.90;;;17.90;;
19235;SDS011;9752;54.270;12.470;2023-03-17T00:41:20;17.93;;;17.00;;
19235;SDS011;9752;54.270;12.470;2023-03-17T00:46:24;20.60;;;18.60;;
19235;SDS011;9752;54.270;12.470;2023-03-17T00:51:27;18.87;;;17.87;;
19235;SDS011;9752;54.270;12.470;2023-03-17T00:56:30;19.30;;;18.20;;
19235;SDS011;9752;54.270;12.470;2023-03-17T01:01:32;19.37;;;18.13;;
19235;SDS011;9752;54.270;12.470;2023-03-17T01:06:34;20.23;;;18.83;;
19235;SDS011;9752;54.270;12.470;2023-03-17T01:11:37;19.67;;;18.47;;
19235;SDS011;9752;54.270;12.470;2023-03-17T01:16:41;20.57;;;19.00;;
19235;SDS011;9752;54.270;12.470;2023-03-17T01:21:43;20.87;;;19.67;;
19235;SDS011;9752;54.270;12.470;2023-03-17T01:26:48;20.50;;;19.07;;
19235;SDS011;9752;54.270;12.470;2023-03-17T01:31:50;20.43;;;19.23;;
19235;SDS011;9752;54.270;12.470;2023-03-17T01:36:52;20.80;;;19.40;;
19235;SDS011;9752;54.270;12.470;2023-03-17T01:41:55;21.10;;;19.50;;
19235;SDS011;9752;54.270;12.470;2023-03-17T01:47:01;19.93;;;18.70;;
19235;SDS011;9752;54.270;12.470;2023-03-17T01:52:03;20.87;;;19.67;;
19235;SDS011;9752;54.270;12.470;2023-03-17T01:57:11;21.17;;;19.53;;
19235;SDS011;9752;54.270;12.470;2023-03-17T02:02:18;20.23;;;18.93;;
19235;SDS011;9752;54.270;12.470;2023-03-17T02:07:23;21.20;;;19.67;;
19235;SDS011;9752;54.270;12.470;2023-03-17T02:12:28;20.43;;;19.03;;
19235;SDS011;9752;54.270;12.470;2023-03-17T02:17:30;20.00;;;18.77;;
19235;SDS011;9752;54.270;12.470;2023-03-17T02:22:33;19.60;;;18.43;;
19235;SDS011;9752;54.270;12.470;2023-03-17T02:27:36;20.20;;;19.00;;
19235;SDS011;9752;54.270;12.470;2023-03-17T02:32:41;21.20;;;19.73;;
19235;SDS011;9752;54.270;12.470;2023-03-17T02:37:44;19.80;;;18.80;;
19235;SDS011;9752;54.270;12.470;2023-03-17T02:42:46;19.90;;;18.80;;
19235;SDS011;9752;54.270;12.470;2023-03-17T02:47:48;19.10;;;18.10;;
19235;SDS011;9752;54.270;12.470;2023-03-17T02:52:53;20.17;;;18.80;;
19235;SDS011;9752;54.270;12.470;2023-03-17T02:57:55;20.33;;;18.63;;
19235;SDS011;9752;54.270;12.470;2023-03-17T03:02:57;20.40;;;19.03;;
19235;SDS011;9752;54.270;12.470;2023-03-17T03:08:00;19.57;;;18.47;;
19235;SDS011;9752;54.270;12.470;2023-03-17T03:13:02;21.20;;;19.53;;
19235;SDS011;9752;54.270;12.470;2023-03-17T03:18:03;20.63;;;19.33;;
19235;SDS011;9752;54.270;12.470;2023-03-17T03:23:07;20.97;;;19.67;;
19235;SDS011;9752;54.270;12.470;2023-03-17T03:28:08;19.83;;;18.37;;
19235;SDS011;9752;54.270;12.470;2023-03-17T03:33:11;20.73;;;18.80;;
19235;SDS011;9752;54.270;12.470;2023-03-17T03:38:15;19.43;;;18.00;;
19235;SDS011;9752;54.270;12.470;2023-03-17T03:43:16;19.60;;;18.30;;
19235;SDS011;9752;54.270;12.470;2023-03-17T03:48:18;20.80;;;19.30;;
19235;SDS011;9752;54.270;12.470;2023-03-17T03:53:22;20.10;;;18.57;;
19235;SDS011;9752;54.270;12.470;2023-03-17T03:58:24;20.33;;;18.90;;
19235;SDS011;9752;54.270;12.470;2023-03-17T04:03:25;20.50;;;19.20;;
19235;SDS011;9752;54.270;12.470;2023-03-17T04:08:28;21.23;;;19.63;;
19235;SDS011;9752;54.270;12.470;2023-03-17T04:13:31;20.73;;;18.97;;
19235;SDS011;9752;54.270;12.470;2023-03-17T04:18:33;20.33;;;18.83;;
19235;SDS011;9752;54.270;12.470;2023-03-17T04:23:36;21.03;;;19.93;;
19235;SDS011;9752;54.270;12.470;2023-03-17T04:28:38;22.37;;;20.50;;
19235;SDS011;9752;54.270;12.470;2023-03-17T04:33:40;21.30;;;19.83;;
19235;SDS011;9752;54.270;12.470;2023-03-17T04:38:43;20.70;;;19.40;;
19235;SDS011;9752;54.270;12.470;2023-03-17T04:43:44;21.47;;;19.87;;
19235;SDS011;9752;54.270;12.470;2023-03-17T04:48:46;20.47;;;19.27;;
19235;SDS011;9752;54.270;12.470;2023-03-17T04:53:49;20.40;;;19.40;;
19235;SDS011;9752;54.270;12.470;2023-03-17T04:58:51;20.60;;;19.57;;
19235;SDS011;9752;54.270;12.470;2023-03-17T05:03:53;21.07;;;19.40;;
19235;SDS011;9752;54.270;12.470;2023-03-17T05:08:56;20.17;;;18.77;;
19235;SDS011;9752;54.270;12.470;2023-03-17T05:13:58;21.10;;;19.40;;
19235;SDS011;9752;54.270;12.470;2023-03-17T05:19:00;21.20;;;19.50;;
19235;SDS011;9752;54.270;12.470;2023-03-17T05:24:04;20.70;;;19.40;;
19235;SDS011;9752;54.270;12.470;2023-03-17T05:29:06;19.43;;;18.23;;
19235;SDS011;9752;54.270;12.470;2023-03-17T05:34:08;20.67;;;19.27;;
19235;SDS011;9752;54.270;12.470;2023-03-17T05:39:11;20.77;;;19.27;;
19235;SDS011;9752;54.270;12.470;2023-03-17T05:44:12;20.37;;;18.50;;
19235;SDS011;9752;54.270;12.470;2023-03-17T05:49:15;17.83;;;16.50;;
19235;SDS011;9752;54.270;12.470;2023-03-17T05:54:19;18.80;;;17.63;;
19235;SDS011;9752;54.270;12.470;2023-03-17T05:59:21;19.33;;;17.77;;
19235;SDS011;9752;54.270;12.470;2023-03-17T06:04:23;19.40;;;18.03;;
19235;SDS011;9752;54.270;12.470;2023-03-17T06:09:26;18.30;;;17.00;;
19235;SDS011;9752;54.270;12.470;2023-03-17T06:14:28;18.70;;;17.50;;
19235;SDS011;9752;54.270;12.470;2023-03-17T06:19:30;18.43;;;17.03;;
19235;SDS011;9752;54.270;12.470;2023-03-17T06:24:33;16.60;;;15.60;;
19235;SDS011;9752;54.270;12.470;2023-03-17T06:29:35;18.33;;;17.00;;
19235;SDS011;9752;54.270;12.470;2023-03-17T06:34:37;18.90;;;17.60;;
19235;SDS011;9752;54.270;12.470;2023-03-17T06:39:40;20.20;;;18.67;;
19235;SDS011;9752;54.270;12.470;2023-03-17T06:44:42;19.00;;;17.60;;
19235;SDS011;9752;54.270;12.470;2023-03-17T06:49:44;18.80;;;17.53;;
19235;SDS011;9752;54.270;12.470;2023-03-17T06:54:47;18.20;;;16.77;;
19235;SDS011;9752;54.270;12.470;2023-03-17T06:59:49;20.00;;;18.10;;
19235;SDS011;9752;54.270;12.470;2023-03-17T07:04:51;18.37;;;16.87;;
19235;SDS011;9752;54.270;12.470;2023-03-17T07:09:54;18.63;;;17.17;;
19235;SDS011;9752;54.270;12.470;2023-03-17T07:14:56;19.73;;;18.33;;
19235;SDS011;9752;54.270;12.470;2023-03-17T07:19:58;19.33;;;17.87;;
19235;SDS011;9752;54.270;12.470;2023-03-17T07:25:01;18.37;;;17.07;;
19235;SDS011;9752;54.270;12.470;2023-03-17T07:30:03;18.00;;;16.70;;
19235;SDS011;9752;54.270;12.470;2023-03-17T07:35:06;18.17;;;16.97;;
19235;SDS011;9752;54.270;12.470;2023-03-17T07:40:10;19.30;;;17.80;;
19235;SDS011;9752;54.270;12.470;2023-03-17T07:45:12;20.00;;;18.07;;
19235;SDS011;9752;54.270;12.470;2023-03-17T07:50:14;19.00;;;17.30;;
19235;SDS011;9752;54.270;12.470;2023-03-17T07:55:17;19.10;;;17.63;;
19235;SDS011;9752;54.270;12.470;2023-03-17T08:00:19;18.13;;;16.87;;
19235;SDS011;9752;54.270;12.470;2023-03-17T08:05:22;16.90;;;15.67;;
19235;SDS011;9752;54.270;12.470;2023-03-17T08:10:26;18.43;;;16.90;;
19235;SDS011;9752;54.270;12.470;2023-03-17T08:15:27;19.47;;;18.07;;
19235;SDS011;9752;54.270;12.470;2023-03-17T08:20:30;19.30;;;17.80;;
19235;SDS011;9752;54.270;12.470;2023-03-17T08:25:33;19.13;;;17.63;;
19235;SDS011;9752;54.270;12.470;2023-03-17T08:30:34;19.47;;;17.87;;
19235;SDS011;9752;54.270;12.470;2023-03-17T08:35:39;17.97;;;16.53;;
19235;SDS011;9752;54.270;12.470;2023-03-17T08:40:42;18.60;;;17.13;;
19235;SDS011;9752;54.270;12.470;2023-03-17T08:45:44;19.33;;;17.83;;
19235;SDS011;9752;54.270;12.470;2023-03-17T08:50:46;18.50;;;16.97;;
19235;SDS011;9752;54.270;12.470;2023-03-17T08:55:49;18.73;;;17.37;;
19235;SDS011;9752;54.270;12.470;2023-03-17T09:00:50;19.13;;;17.47;;
19235;SDS011;9752;54.270;12.470;2023-03-17T09:05:53;18.47;;;17.07;;
19235;SDS011;9752;54.270;12.470;2023-03-17T09:10:56;20.97;;;19.20;;
19235;SDS011;9752;54.270;12.470;2023-03-17T09:15:58;19.37;;;17.97;;
19235;SDS011;9752;54.270;12.470;2023-03-17T09:21:00;18.87;;;17.30;;
19235;SDS011;9752;54.270;12.470;2023-03-17T09:26:04;16.90;;;15.80;;
19235;SDS011;9752;54.270;12.470;2023-03-17T09:31:06;17.17;;;15.97;;
19235;SDS011;9752;54.270;12.470;2023-03-17T09:36:10;19.33;;;17.90;;
19235;SDS011;9752;54.270;12.470;2023-03-17T09:41:22;18.97;;;17.50;;
19235;SDS011;9752;54.270;12.470;2023-03-17T09:46:37;17.57;;;16.10;;
19235;SDS011;9752;54.270;12.470;2023-03-17T09:51:46;17.47;;;15.83;;
19235;SDS011;9752;54.270;12.470;2023-03-17T09:56:53;17.17;;;15.80;;
19235;SDS011;9752;54.270;12.470;2023-03-17T10:02:00;16.77;;;15.57;;
19235;SDS011;9752;54.270;12.470;2023-03-17T10:07:02;18.07;;;16.67;;
19235;SDS011;9752;54.270;12.470;2023-03-17T10:12:09;17.43;;;16.13;;
19235;SDS011;9752;54.270;12.470;2023-03-17T10:17:16;17.67;;;16.33;;
19235;SDS011;9752;54.270;12.470;2023-03-17T10:22:20;17.90;;;16.63;;
19235;SDS011;9752;54.270;12.470;2023-03-17T10:27:28;16.47;;;15.50;;
19235;SDS011;9752;54.270;12.470;2023-03-17T10:32:34;17.73;;;16.60;;
19235;SDS011;9752;54.270;12.470;2023-03-17T10:37:39;18.00;;;16.70;;
19235;SDS011;9752;54.270;12.470;2023-03-17T10:42:46;17.10;;;16.03;;
19235;SDS011;9752;54.270;12.470;2023-03-17T10:47:53;16.97;;;15.63;;
19235;SDS011;9752;54.270;12.470;2023-03-17T10:52:57;17.97;;;16.77;;
19235;SDS011;9752;54.270;12.470;2023-03-17T10:58:03;18.63;;;17.27;;
19235;SDS011;9752;54.270;12.470;2023-03-17T11:03:09;17.57;;;16.27;;
19235;SDS011;9752;54.270;12.470;2023-03-17T11:08:23;17.03;;;15.83;;
19235;SDS011;9752;54.270;12.470;2023-03-17T11:13:32;17.43;;;16.23;;
19235;SDS011;9752;54.270;12.470;2023-03-17T11:18:34;18.50;;;17.20;;
19235;SDS011;9752;54.270;12.470;2023-03-17T11:23:45;18.00;;;16.70;;
19235;SDS011;9752;54.270;12.470;2023-03-17T11:28:53;17.00;;;15.90;;
19235;SDS011;9752;54.270;12.470;2023-03-17T11:34:06;18.53;;;17.33;;
19235;SDS011;9752;54.270;12.470;2023-03-17T11:39:13;18.50;;;17.20;;
19235;SDS011;9752;54.270;12.470;2023-03-17T11:44:32;19.17;;;17.87;;
19235;SDS011;9752;54.270;12.470;2023-03-17T11:49:41;18.87;;;17.40;;
19235;SDS011;9752;54.270;12.470;2023-03-17T11:54:49;28.90;;;25.80;;
19235;SDS011;9752;54.270;12.470;2023-03-17T11:59:59;19.33;;;17.93;;
19235;SDS011;9752;54.270;12.470;2023-03-17T12:05:11;19.17;;;17.77;;
19235;SDS011;9752;54.270;12.470;2023-03-17T12:10:17;18.83;;;17.50;;
19235;SDS011;9752;54.270;12.470;2023-03-17T12:15:27;17.73;;;16.70;;
19235;SDS011;9752;54.270;12.470;2023-03-17T12:20:34;18.43;;;17.03;;
19235;SDS011;9752;54.270;12.470;2023-03-17T12:25:45;19.00;;;17.70;;
19235;SDS011;9752;54.270;12.470;2023-03-17T12:30:54;20.67;;;19.17;;
19235;SDS011;9752;54.270;12.470;2023-03-17T12:36:03;18.37;;;17.27;;
19235;SDS011;9752;54.270;12.470;2023-03-17T12:41:18;19.37;;;17.97;;
19235;SDS011;9752;54.270;12.470;2023-03-17T12:47:00;18.57;;;17.43;;
19235;SDS011;9752;54.270;12.470;2023-03-17T12:52:20;18.27;;;17.27;;
19235;SDS011;9752;54.270;12.470;2023-03-17T12:57:36;18.70;;;17.40;;
19235;SDS011;9752;54.270;12.470;2023-03-17T13:02:43;17.97;;;16.87;;
19235;SDS011;9752;54.270;12.470;2023-03-17T13:07:49;17.67;;;16.60;;
19235;SDS011;9752;54.270;12.470;2023-03-17T13:12:56;19.00;;;17.60;;
19235;SDS011;9752;54.270;12.470;2023-03-17T13:18:21;18.87;;;17.57;;
19235;SDS011;9752;54.270;12.470;2023-03-17T13:23:32;18.03;;;16.70;;
19235;SDS011;9752;54.270;12.470;2023-03-17T13:28:42;17.70;;;16.60;;
19235;SDS011;9752;54.270;12.470;2023-03-17T13:33:50;17.23;;;16.17;;
19235;SDS011;9752;54.270;12.470;2023-03-17T13:45:03;17.03;;;16.00;;
19235;SDS011;9752;54.270;12.470;2023-03-17T13:50:13;17.20;;;15.87;;
19235;SDS011;9752;54.270;12.470;2023-03-17T13:55:33;16.53;;;15.60;;
19235;SDS011;9752;54.270;12.470;2023-03-17T14:00:37;16.20;;;15.13;;
19235;SDS011;9752;54.270;12.470;2023-03-17T14:05:44;17.73;;;16.43;;
19235;SDS011;9752;54.270;12.470;2023-03-17T14:10:51;15.93;;;15.03;;
19235;SDS011;9752;54.270;12.470;2023-03-17T14:15:56;16.40;;;15.40;;
19235;SDS011;9752;54.270;12.470;2023-03-17T14:21:05;17.67;;;16.40;;
19235;SDS011;9752;54.270;12.470;2023-03-17T14:26:09;17.63;;;16.37;;
19235;SDS011;9752;54.270;12.470;2023-03-17T14:31:15;17.03;;;16.03;;
19235;SDS011;9752;54.270;12.470;2023-03-17T14:36:23;18.53;;;17.23;;
19235;SDS011;9752;54.270;12.470;2023-03-17T14:41:26;17.30;;;16.20;;
19235;SDS011;9752;54.270;12.470;2023-03-17T14:46:29;17.53;;;16.43;;
19235;SDS011;9752;54.270;12.470;2023-03-17T14:51:34;17.67;;;16.17;;
19235;SDS011;9752;54.270;12.470;2023-03-17T14:56:39;16.40;;;14.97;;
19235;SDS011;9752;54.270;12.470;2023-03-17T15:01:43;15.87;;;14.80;;
19235;SDS011;9752;54.270;12.470;2023-03-17T15:06:48;23.97;;;21.57;;
19235;SDS011;9752;54.270;12.470;2023-03-17T15:11:53;17.03;;;15.77;;
19235;SDS011;9752;54.270;12.470;2023-03-17T15:16:56;16.07;;;14.80;;
19235;SDS011;9752;54.270;12.470;2023-03-17T15:22:03;16.37;;;15.17;;
19235;SDS011;9752;54.270;12.470;2023-03-17T15:27:09;17.70;;;16.23;;
19235;SDS011;9752;54.270;12.470;2023-03-17T15:32:15;16.30;;;15.13;;
19235;SDS011;9752;54.270;12.470;2023-03-17T15:37:21;17.77;;;16.43;;
19235;SDS011;9752;54.270;12.470;2023-03-17T15:42:25;17.70;;;16.33;;
19235;SDS011;9752;54.270;12.470;2023-03-17T15:47:28;16.60;;;15.40;;
19235;SDS011;9752;54.270;12.470;2023-03-17T15:52:33;17.13;;;15.97;;
19235;SDS011;9752;54.270;12.470;2023-03-17T15:57:35;16.33;;;15.23;;
19235;SDS011;9752;54.270;12.470;2023-03-17T16:02:36;15.73;;;14.67;;
19235;SDS011;9752;54.270;12.470;2023-03-17T16:07:39;16.30;;;15.10;;
19235;SDS011;9752;54.270;12.470;2023-03-17T16:12:41;16.47;;;15.27;;
19235;SDS011;9752;54.270;12.470;2023-03-17T16:17:43;15.20;;;14.27;;
19235;SDS011;9752;54.270;12.470;2023-03-17T16:22:48;15.50;;;14.43;;
19235;SDS011;9752;54.270;12.470;2023-03-17T16:27:51;16.70;;;15.47;;
19235;SDS011;9752;54.270;12.470;2023-03-17T16:32:55;16.90;;;15.80;;
19235;SDS011;9752;54.270;12.470;2023-03-17T16:38:01;15.97;;;14.77;;
19235;SDS011;9752;54.270;12.470;2023-03-17T16:43:03;16.93;;;15.67;;
19235;SDS011;9752;54.270;12.470;2023-03-17T16:48:08;15.03;;;14.13;;
19235;SDS011;9752;54.270;12.470;2023-03-17T16:53:13;15.50;;;14.40;;
19235;SDS011;9752;54.270;12.470;2023-03-17T16:58:15;15.47;;;14.27;;
19235;SDS011;9752;54.270;12.470;2023-03-17T17:03:19;17.30;;;16.10;;
19235;SDS011;9752;54.270;12.470;2023-03-17T17:08:22;16.03;;;14.97;;
19235;SDS011;9752;54.270;12.470;2023-03-17T17:13:24;16.23;;;14.90;;
19235;SDS011;9752;54.270;12.470;2023-03-17T17:18:26;18.13;;;16.60;;
19235;SDS011;9752;54.270;12.470;2023-03-17T17:23:29;17.90;;;16.40;;
19235;SDS011;9752;54.270;12.470;2023-03-17T17:28:30;17.23;;;15.83;;
19235;SDS011;9752;54.270;12.470;2023-03-17T17:33:32;18.30;;;16.93;;
19235;SDS011;9752;54.270;12.470;2023-03-17T17:38:36;18.77;;;17.30;;
19235;SDS011;9752;54.270;12.470;2023-03-17T17:43:38;18.23;;;16.73;;
19235;SDS011;9752;54.270;12.470;2023-03-17T17:48:40;17.73;;;16.23;;
19235;SDS011;9752;54.270;12.470;2023-03-17T17:53:43;16.47;;;15.13;;
19235;SDS011;9752;54.270;12.470;2023-03-17T17:58:45;18.10;;;16.67;;
19235;SDS011;9752;54.270;12.470;2023-03-17T18:03:47;20.30;;;18.73;;
19235;SDS011;9752;54.270;12.470;2023-03-17T18:08:50;21.23;;;19.23;;
19235;SDS011;9752;54.270;12.470;2023-03-17T18:13:52;22.03;;;20.07;;
19235;SDS011;9752;54.270;12.470;2023-03-17T18:18:53;19.93;;;17.93;;
19235;SDS011;9752;54.270;12.470;2023-03-17T18:23:58;18.57;;;16.83;;
19235;SDS011;9752;54.270;12.470;2023-03-17T18:28:59;18.27;;;16.93;;
19235;SDS011;9752;54.270;12.470;2023-03-17T18:34:02;17.67;;;16.33;;
19235;SDS011;9752;54.270;12.470;2023-03-17T18:39:08;16.57;;;15.43;;
19235;SDS011;9752;54.270;12.470;2023-03-17T18:44:09;17.10;;;15.80;;
19235;SDS011;9752;54.270;12.470;2023-03-17T18:49:11;19.17;;;17.80;;
19235;SDS011;9752;54.270;12.470;2023-03-17T18:54:14;20.67;;;19.10;;
19235;SDS011;9752;54.270;12.470;2023-03-17T18:59:16;18.70;;;17.50;;
19235;SDS011;9752;54.270;12.470;2023-03-17T19:04:18;19.67;;;18.17;;
19235;SDS011;9752;54.270;12.470;2023-03-17T19:09:21;18.27;;;16.87;;
19235;SDS011;9752;54.270;12.470;2023-03-17T19:14:22;19.87;;;18.17;;
19235;SDS011;9752;54.270;12.470;2023-03-17T19:19:24;20.57;;;18.63;;
19235;SDS011;9752;54.270;12.470;2023-03-17T19:24:27;17.27;;;16.07;;
19235;SDS011;9752;54.270;12.470;2023-03-17T19:29:30;20.03;;;18.57;;
19235;SDS011;9752;54.270;12.470;2023-03-17T19:34:32;17.87;;;16.70;;
19235;SDS011;9752;54.270;12.470;2023-03-17T19:39:35;16.70;;;15.50;;
19235;SDS011;9752;54.270;12.470;2023-03-17T19:44:37;18.07;;;16.80;;
19235;SDS011;9752;54.270;12.470;2023-03-17T19:49:40;17.73;;;16.43;;
19235;SDS011;9752;54.270;12.470;2023-03-17T19:54:45;17.73;;;16.57;;
19235;SDS011;9752;54.270;12.470;2023-03-17T19:59:46;16.70;;;15.70;;
19235;SDS011;9752;54.270;12.470;2023-03-17T20:04:48;18.40;;;17.20;;
19235;SDS011;9752;54.270;12.470;2023-03-17T20:09:51;17.77;;;16.67;;
19235;SDS011;9752;54.270;12.470;2023-03-17T20:14:53;18.50;;;17.13;;
19235;SDS011;9752;54.270;12.470;2023-03-17T20:19:55;17.93;;;16.47;;
19235;SDS011;9752;54.270;12.470;2023-03-17T20:24:58;17.73;;;16.63;;
19235;SDS011;9752;54.270;12.470;2023-03-17T20:29:59;16.83;;;15.63;;
19235;SDS011;9752;54.270;12.470;2023-03-17T20:35:01;17.03;;;15.83;;
19235;SDS011;9752;54.270;12.470;2023-03-17T20:40:05;17.70;;;16.37;;
19235;SDS011;9752;54.270;12.470;2023-03-17T20:45:09;16.80;;;15.70;;
19235;SDS011;9752;54.270;12.470;2023-03-17T20:50:11;18.70;;;17.57;;
19235;SDS011;9752;54.270;12.470;2023-03-17T20:55:15;17.47;;;16.23;;
19235;SDS011;9752;54.270;12.470;2023-03-17T21:00:19;18.03;;;16.63;;
19235;SDS011;9752;54.270;12.470;2023-03-17T21:05:22;17.77;;;16.63;;
19235;SDS011;9752;54.270;12.470;2023-03-17T21:10:27;18.07;;;16.83;;
19235;SDS011;9752;54.270;12.470;2023-03-17T21:15:29;18.20;;;17.20;;
19235;SDS011;9752;54.270;12.470;2023-03-17T21:20:31;19.80;;;18.30;;
19235;SDS011;9752;54.270;12.470;2023-03-17T21:25:34;20.83;;;19.33;;
19235;SDS011;9752;54.270;12.470;2023-03-17T21:30:36;18.87;;;17.67;;
19235;SDS011;9752;54.270;12.470;2023-03-17T21:35:38;20.17;;;18.77;;
19235;SDS011;9752;54.270;12.470;2023-03-17T21:40:41;20.07;;;18.67;;
19235;SDS011;9752;54.270;12.470;2023-03-17T21:45:43;19.70;;;18.40;;
19235;SDS011;9752;54.270;12.470;2023-03-17T21:50:45;20.13;;;18.83;;
19235;SDS011;9752;54.270;12.470;2023-03-17T21:55:50;19.93;;;18.53;;
19235;SDS011;9752;54.270;12.470;2023-03-17T22:00:51;18.60;;;17.40;;
19235;SDS011;9752;54.270;12.470;2023-03-17T22:05:53;20.13;;;18.83;;
19235;SDS011;9752;54.270;12.470;2023-03-17T22:10:57;19.80;;;18.43;;
19235;SDS011;9752;54.270;12.470;2023-03-17T22:15:59;20.37;;;19.07;;
19235;SDS011;9752;54.270;12.470;2023-03-17T22:21:00;19.40;;;18.20;;
19235;SDS011;9752;54.270;12.470;2023-03-17T22:26:03;20.10;;;18.80;;
19235;SDS011;9752;54.270;12.470;2023-03-17T22:31:09;19.47;;;18.27;;
19235;SDS011;9752;54.270;12.470;2023-03-17T22:36:12;21.03;;;19.57;;
19235;SDS011;9752;54.270;12.470;2023-03-17T22:41:15;20.27;;;18.77;;
19235;SDS011;9752;54.270;12.470;2023-03-17T22:46:18;20.07;;;18.77;;
19235;SDS011;9752;54.270;12.470;2023-03-17T22:51:21;19.43;;;18.23;;
19235;SDS011;9752;54.270;12.470;2023-03-17T22:56:27;20.17;;;18.23;;
19235;SDS011;9752;54.270;12.470;2023-03-17T23:01:29;19.43;;;17.90;;
19235;SDS011;9752;54.270;12.470;2023-03-17T23:06:30;18.30;;;17.20;;
19235;SDS011;9752;54.270;12.470;2023-03-17T23:11:35;20.37;;;18.27;;
19235;SDS011;9752;54.270;12.470;2023-03-17T23:16:37;19.40;;;18.20;;
19235;SDS011;9752;54.270;12.470;2023-03-17T23:21:39;19.93;;;18.43;;
19235;SDS011;9752;54.270;12.470;2023-03-17T23:26:42;19.80;;;18.40;;
19235;SDS011;9752;54.270;12.470;2023-03-17T23:31:44;19.73;;;18.37;;
19235;SDS011;9752;54.270;12.470;2023-03-17T23:36:46;17.77;;;16.73;;
19235;SDS011;9752;54.270;12.470;2023-03-17T23:41:50;19.43;;;18.20;;
19235;SDS011;9752;54.270;12.470;2023-03-17T23:46:51;20.27;;;19.13;;
19235;SDS011;9752;54.270;12.470;2023-03-17T23:51:53;19.70;;;18.40;;
19235;SDS011;9752;54.270;12.470;2023-03-17T23:56:56;20.13;;;18.83;;
